Time;durP1;ratioP1;P1;durP2;ratioP2;P2;SDS_P1;SDS_P2;PMS_P1;PMS_P2;Temp;Humidity;BMP_temperature;BMP_pressure;BME280_temperature;BME280_humidity;BME280_pressure;Samples;Min_cycle;Max_cycle;Signal;HPM_P1;HPM_P2
2022/07/14 00:02:04;;;;;;;19.23;3.92;;;;;;;18.00;76.62;101912.25;4949409;29;20035;-74
2022/07/14 00:04:43;;;;;;;15.23;3.15;;;;;;;17.97;76.81;101920.13;4951015;28;20258;-74
2022/07/14 00:07:24;;;;;;;13.40;3.10;;;;;;;17.98;77.20;101924.53;4935041;29;20510;-74
2022/07/14 00:09:58;;;;;;;17.35;3.33;;;;;;;17.88;77.44;101933.38;4935504;29;20027;-74
2022/07/14 00:12:33;;;;;;;13.60;3.00;;;;;;;17.95;76.97;101922.28;4972627;28;20033;-74
2022/07/14 00:15:00;;;;;;;11.90;3.03;;;;;;;17.85;77.51;101914.72;4962427;28;20478;-74
2022/07/14 00:17:28;;;;;;;10.32;2.97;;;;;;;17.83;78.14;101898.53;4951217;29;20027;-74
2022/07/14 00:19:53;;;;;;;11.88;3.05;;;;;;;17.78;78.71;101903.91;4958322;28;20484;-74
2022/07/14 00:22:18;;;;;;;10.45;3.00;;;;;;;17.72;79.06;101883.00;4973611;28;20073;-74
2022/07/14 00:24:44;;;;;;;16.25;4.03;;;;;;;17.67;79.22;101888.38;4973650;28;20023;-74
2022/07/14 00:27:09;;;;;;;12.57;2.83;;;;;;;17.68;79.42;101874.47;4973478;28;20015;-74
2022/07/14 00:29:36;;;;;;;14.27;3.20;;;;;;;17.57;79.83;101880.00;4964688;28;20074;-74
2022/07/14 00:32:08;;;;;;;16.48;3.28;;;;;;;17.46;80.84;101893.50;4973718;28;20466;-74
2022/07/14 00:34:33;;;;;;;15.68;3.22;;;;;;;17.40;81.79;101899.94;4960619;28;20062;-74
2022/07/14 00:36:59;;;;;;;15.82;3.38;;;;;;;17.28;82.69;101907.38;4950716;29;20467;-74
2022/07/14 00:39:24;;;;;;;14.50;3.90;;;;;;;17.21;83.93;101907.53;4934799;29;20019;-74
2022/07/14 00:41:50;;;;;;;13.95;3.67;;;;;;;17.14;84.42;101902.19;4936008;29;20087;-74
2022/07/14 00:44:15;;;;;;;12.20;3.72;;;;;;;17.12;85.43;101896.16;4942520;28;20081;-74
2022/07/14 00:46:40;;;;;;;14.15;3.60;;;;;;;17.07;86.63;101904.25;4973122;28;20077;-74
2022/07/14 00:49:06;;;;;;;14.35;3.65;;;;;;;17.12;85.91;101901.63;4974363;28;20111;-74
2022/07/14 00:51:31;;;;;;;13.68;3.75;;;;;;;17.09;86.59;101885.69;4974418;28;20034;-74
2022/07/14 00:53:56;;;;;;;15.45;4.13;;;;;;;17.17;85.50;101888.03;4974612;28;20023;-74
2022/07/14 00:56:22;;;;;;;12.48;3.40;;;;;;;17.22;85.41;101898.25;4959620;28;20138;-74
2022/07/14 00:58:48;;;;;;;10.57;3.50;;;;;;;17.24;84.86;101906.19;4940082;28;20247;-74
2022/07/14 01:01:14;;;;;;;11.50;3.90;;;;;;;17.15;86.24;101901.13;4972024;28;20411;-74
2022/07/14 01:03:39;;;;;;;17.27;4.28;;;;;;;17.15;86.07;101900.28;4972839;28;20127;-74
2022/07/14 01:06:05;;;;;;;16.48;3.92;;;;;;;17.18;85.94;101905.25;4972875;28;20015;-74
2022/07/14 01:08:30;;;;;;;16.02;3.70;;;;;;;17.25;85.27;101911.44;4972562;28;20398;-74
2022/07/14 01:10:55;;;;;;;11.70;3.30;;;;;;;17.15;86.18;101911.22;4973041;28;20019;-74
2022/07/14 01:13:21;;;;;;;15.32;3.88;;;;;;;17.11;86.74;101916.34;4970245;28;20011;-73
2022/07/14 01:15:46;;;;;;;18.58;4.90;;;;;;;17.07;86.83;101917.91;4974252;28;20508;-74
2022/07/14 01:18:11;;;;;;;18.58;4.00;;;;;;;17.07;86.89;101919.81;4959545;28;20076;-74
2022/07/14 01:20:36;;;;;;;13.27;3.85;;;;;;;17.10;87.13;101914.69;4949803;29;20044;-74
2022/07/14 01:23:02;;;;;;;17.52;3.95;;;;;;;17.06;88.21;101920.88;4935336;29;20019;-74
2022/07/14 01:25:27;;;;;;;14.88;3.60;;;;;;;17.04;89.10;101932.06;4950176;29;20024;-74
2022/07/14 01:27:53;;;;;;;17.00;4.15;;;;;;;17.00;88.54;101931.72;4934473;29;20035;-74
2022/07/14 01:30:18;;;;;;;12.93;3.50;;;;;;;16.98;88.89;101916.63;4986611;28;20023;-74
2022/07/14 01:32:43;;;;;;;15.20;3.75;;;;;;;16.94;89.13;101920.91;4972476;28;20154;-74
2022/07/14 01:35:09;;;;;;;11.70;3.70;;;;;;;16.92;90.05;101934.81;4973713;28;20011;-74
2022/07/14 01:37:34;;;;;;;14.88;3.47;;;;;;;16.87;90.50;101923.78;4972127;28;20026;-74
2022/07/14 01:40:01;;;;;;;12.23;3.90;;;;;;;16.85;90.53;101928.66;4963502;28;20042;-74
2022/07/14 01:42:26;;;;;;;14.25;3.58;;;;;;;16.82;91.13;101929.97;4953158;29;20015;-74
2022/07/14 01:44:52;;;;;;;16.23;3.75;;;;;;;16.71;92.02;101924.50;4960426;28;20027;-74
2022/07/14 01:47:17;;;;;;;16.23;3.45;;;;;;;16.72;92.70;101918.78;4970590;28;20023;-74
2022/07/14 01:49:42;;;;;;;15.48;3.67;;;;;;;16.63;93.63;101915.59;4955049;28;20055;-74
2022/07/14 01:52:08;;;;;;;14.32;3.88;;;;;;;16.59;94.50;101925.38;4962152;28;20034;-74
2022/07/14 01:54:33;;;;;;;13.23;3.58;;;;;;;16.58;94.33;101915.50;4975527;28;20118;-74
2022/07/14 01:56:59;;;;;;;15.52;3.97;;;;;;;16.65;94.02;101912.63;4958793;28;20070;-74
2022/07/14 01:59:25;;;;;;;12.65;3.08;;;;;;;16.64;94.16;101910.97;4937789;29;20119;-74
2022/07/14 02:01:50;;;;;;;13.88;3.38;;;;;;;16.75;93.33;101912.03;4947965;28;20101;-73
2022/07/14 02:04:18;;;;;;;12.73;4.00;;;;;;;16.75;92.02;101912.84;4977617;28;20030;-74
2022/07/14 02:06:52;;;;;;;19.30;3.97;;;;;;;16.63;93.08;101901.94;4977595;28;20050;-74
2022/07/14 02:09:19;;;;;;;19.13;3.88;;;;;;;16.67;92.12;101913.22;4976311;28;20470;-73
2022/07/14 02:14:30;;;;;;;18.17;3.90;;;;;;;16.48;94.06;101920.72;4977360;28;20054;-74
2022/07/14 02:16:56;;;;;;;17.63;3.60;;;;;;;16.49;94.32;101908.72;4946007;28;21207;-74
2022/07/14 02:19:23;;;;;;;17.52;3.47;;;;;;;16.47;94.37;101911.72;4953194;29;20051;-73
2022/07/14 02:21:49;;;;;;;14.18;3.80;;;;;;;16.46;93.67;101907.31;4953603;29;20043;-72
2022/07/14 02:24:15;;;;;;;17.15;3.95;;;;;;;16.48;93.78;101912.53;4938869;29;20027;-73
2022/07/14 02:26:41;;;;;;;11.20;2.92;;;;;;;16.48;93.17;101918.81;4938618;29;20031;-73
2022/07/14 02:29:06;;;;;;;11.55;3.67;;;;;;;16.44;93.38;101923.13;4938770;29;20039;-73
2022/07/14 02:31:37;;;;;;;12.07;3.70;;;;;;;16.39;93.91;101913.97;4944295;29;20130;-80
2022/07/14 02:34:03;;;;;;;17.42;4.30;;;;;;;16.44;93.01;101914.91;4972579;28;20028;-79
2022/07/14 02:36:30;;;;;;;13.13;3.58;;;;;;;16.36;94.46;101909.78;4955987;28;20102;-74
2022/07/14 02:38:56;;;;;;;15.90;3.67;;;;;;;16.30;94.85;101899.81;4953198;28;20034;-74
2022/07/14 02:41:21;;;;;;;15.20;3.58;;;;;;;16.30;94.64;101906.13;4938090;29;20027;-74
2022/07/14 02:43:47;;;;;;;12.80;3.72;;;;;;;16.22;95.14;101894.72;4938118;29;20082;-74
2022/07/14 02:46:12;;;;;;;18.55;4.28;;;;;;;16.28;94.95;101894.59;4952710;28;20118;-74
2022/07/14 02:48:37;;;;;;;16.80;4.35;;;;;;;16.17;95.06;101895.44;4936987;29;20023;-74
2022/07/14 02:51:09;;;;;;;12.55;3.70;;;;;;;16.16;96.25;101882.03;4938613;29;20024;-74
2022/07/14 02:53:35;;;;;;;;;;;;;;;16.36;89.72;101885.22;4938516;29;20055;-74
2022/07/14 02:56:09;;;;;;;14.18;3.85;;;;;;;16.26;93.31;101876.78;4937171;29;20354;-74
2022/07/14 02:58:35;;;;;;;12.85;3.58;;;;;;;16.17;94.74;101876.34;4937990;29;20023;-74
2022/07/14 03:01:05;;;;;;;14.02;3.70;;;;;;;16.21;95.64;101882.13;4949160;28;20513;-74
2022/07/14 03:03:30;;;;;;;19.73;4.15;;;;;;;16.20;94.91;101891.38;4976403;28;20022;-74
2022/07/14 03:05:55;;;;;;;15.48;3.95;;;;;;;16.16;95.65;101884.75;4975323;28;20030;-74
2022/07/14 03:08:21;;;;;;;17.35;4.57;;;;;;;16.07;95.57;101884.28;4973227;28;20023;-74
2022/07/14 03:10:46;;;;;;;12.32;3.90;;;;;;;16.01;96.35;101875.13;4956661;28;20019;-74
2022/07/14 03:13:11;;;;;;;18.25;4.45;;;;;;;15.97;97.02;101879.38;4956879;29;20027;-74
2022/07/14 03:15:37;;;;;;;13.73;4.30;;;;;;;15.89;98.57;101871.56;4961166;28;20026;-74
2022/07/14 03:18:02;;;;;;;17.73;3.97;;;;;;;15.88;98.50;101865.28;4976106;28;20022;-74
2022/07/14 03:20:28;;;;;;;13.82;4.10;;;;;;;15.99;97.22;101860.91;4976131;28;20121;-74
2022/07/14 03:22:54;;;;;;;16.45;4.32;;;;;;;15.92;97.06;101861.00;4976167;28;20034;-74
2022/07/14 03:25:20;;;;;;;17.60;4.57;;;;;;;15.97;97.22;101860.28;4976518;28;20105;-73
2022/07/14 03:27:46;;;;;;;16.63;4.30;;;;;;;15.92;97.25;101857.44;4973102;28;20054;-74
2022/07/14 03:30:12;;;;;;;16.08;3.85;;;;;;;15.96;96.85;101855.91;4956635;28;20036;-74
2022/07/14 03:32:39;;;;;;;14.73;4.25;;;;;;;15.96;96.74;101850.44;4975917;28;20038;-74
2022/07/14 03:35:06;;;;;;;15.55;4.05;;;;;;;15.96;96.66;101850.44;4976095;28;20368;-74
2022/07/14 03:37:31;;;;;;;20.10;4.95;;;;;;;15.89;98.04;101853.28;4974512;28;20030;-74
2022/07/14 03:39:56;;;;;;;14.20;4.45;;;;;;;15.97;96.64;101854.81;4976007;28;20034;-74
2022/07/14 03:42:23;;;;;;;16.75;4.50;;;;;;;15.89;96.84;101847.00;4974624;28;20053;-74
2022/07/14 03:44:48;;;;;;;14.30;4.60;;;;;;;15.98;95.70;101853.75;4973051;28;20051;-74
2022/07/14 03:47:14;;;;;;;13.75;4.10;;;;;;;15.91;96.84;101858.50;4973616;28;20109;-74
2022/07/14 03:49:39;;;;;;;21.58;4.60;;;;;;;15.82;96.60;101859.91;4972046;28;20073;-74
2022/07/14 03:52:05;;;;;;;20.25;4.55;;;;;;;15.90;97.23;101860.41;4937340;29;20024;-74
2022/07/14 03:54:30;;;;;;;15.00;4.50;;;;;;;15.92;95.93;101874.63;4937026;29;20036;-74
2022/07/14 03:56:55;;;;;;;18.92;4.28;;;;;;;15.81;96.90;101880.09;4937160;29;20031;-74
2022/07/14 03:59:21;;;;;;;13.60;4.18;;;;;;;15.72;98.32;101882.31;4951857;29;20119;-74
2022/07/14 04:01:46;;;;;;;17.67;4.57;;;;;;;15.73;98.65;101879.34;4937954;28;20471;-74
2022/07/14 04:04:11;;;;;;;14.57;4.05;;;;;;;15.79;97.67;101883.03;4974691;28;20019;-73
2022/07/14 04:06:36;;;;;;;18.05;4.90;;;;;;;15.79;98.21;101888.50;4975281;28;20031;-74
2022/07/14 04:09:02;;;;;;;15.95;4.80;;;;;;;15.70;98.74;101890.72;4975418;28;20073;-74
2022/07/14 04:11:28;;;;;;;20.77;4.70;;;;;;;15.69;98.88;101880.88;4972213;28;20030;-73
2022/07/14 04:13:53;;;;;;;18.05;4.35;;;;;;;15.77;98.32;101879.69;4955742;28;20041;-74
2022/07/14 04:16:18;;;;;;;16.45;4.85;;;;;;;15.77;97.67;101877.81;4955627;28;20023;-74
2022/07/14 04:18:44;;;;;;;18.45;4.70;;;;;;;15.80;96.62;101878.44;4969806;28;20035;-74
2022/07/14 04:21:09;;;;;;;18.23;5.15;;;;;;;15.89;96.21;101887.94;4975486;28;20029;-74
2022/07/14 04:23:35;;;;;;;21.17;4.95;;;;;;;15.84;96.10;101880.47;4969962;28;20093;-74
2022/07/14 04:26:01;;;;;;;17.55;4.57;;;;;;;15.91;95.75;101873.00;4936405;29;20042;-73
2022/07/14 04:28:27;;;;;;;18.55;4.72;;;;;;;15.94;94.42;101877.97;4951255;29;20117;-74
2022/07/14 04:30:53;;;;;;;18.85;5.25;;;;;;;15.98;95.13;101881.06;4950947;29;20028;-74
2022/07/14 04:33:20;;;;;;;16.17;4.35;;;;;;;15.94;96.14;101879.88;4951795;29;20031;-74
2022/07/14 04:35:45;;;;;;;20.88;5.32;;;;;;;15.91;95.77;101881.19;4953653;29;20121;-73
2022/07/14 04:38:11;;;;;;;17.40;5.68;;;;;;;15.89;95.34;101880.56;4955461;28;20126;-74
2022/07/14 04:40:36;;;;;;;19.38;5.15;;;;;;;15.94;95.59;101883.44;4955380;29;20024;-73
2022/07/14 04:43:01;;;;;;;18.15;5.88;;;;;;;16.00;94.67;101876.19;4955453;28;20461;-74
2022/07/14 04:45:27;;;;;;;19.23;5.15;;;;;;;16.00;94.25;101872.63;4955478;28;20060;-74
2022/07/14 04:47:52;;;;;;;19.27;4.90;;;;;;;15.97;94.91;101863.00;4968266;28;20395;-74
2022/07/14 04:53:01;;;;;;;17.35;5.10;;;;;;;16.04;94.80;101866.47;4974602;28;20077;-74
2022/07/14 04:55:27;;;;;;;17.23;5.07;;;;;;;16.07;93.94;101867.91;4967206;28;20096;-74
2022/07/14 04:57:53;;;;;;;19.73;5.13;;;;;;;16.02;93.93;101870.47;4950581;29;20440;-74
2022/07/14 05:00:18;;;;;;;18.52;5.13;;;;;;;15.98;93.97;101870.13;4935685;29;20032;-74
2022/07/14 05:02:44;;;;;;;16.20;5.38;;;;;;;16.02;93.99;101876.78;4952389;29;20066;-74
2022/07/14 05:05:10;;;;;;;15.93;4.97;;;;;;;15.97;94.35;101882.13;4955060;28;20029;-74
2022/07/14 05:07:36;;;;;;;18.73;5.30;;;;;;;16.00;94.24;101889.84;4954605;28;20193;-74
2022/07/14 05:10:03;;;;;;;22.30;5.30;;;;;;;16.02;94.26;101892.31;4954780;28;20039;-74
2022/07/14 05:12:29;;;;;;;20.75;4.75;;;;;;;16.09;93.70;101899.38;4953728;29;20113;-74
2022/07/14 05:14:54;;;;;;;19.42;4.88;;;;;;;15.95;95.14;101893.28;4953491;28;20481;-75
2022/07/14 05:17:20;;;;;;;18.60;5.15;;;;;;;15.99;93.52;101896.38;4965254;28;21013;-74
2022/07/14 05:19:49;;;;;;;18.30;5.40;;;;;;;16.12;94.08;101887.97;4954623;28;20035;-74
2022/07/14 05:22:15;;;;;;;21.15;6.22;;;;;;;16.05;93.96;101886.44;4954878;28;20455;-74
2022/07/14 05:24:40;;;;;;;15.98;4.97;;;;;;;16.04;93.45;101880.13;4954518;28;20067;-74
2022/07/14 05:27:06;;;;;;;20.17;5.80;;;;;;;16.12;93.18;101887.13;4954565;28;20031;-74
2022/07/14 05:29:31;;;;;;;20.42;6.70;;;;;;;16.18;91.36;101885.34;4953866;28;20591;-74
2022/07/14 05:31:57;;;;;;;20.08;5.30;;;;;;;16.09;93.20;101888.44;4953609;28;20058;-75
2022/07/14 05:34:23;;;;;;;21.08;5.38;;;;;;;16.11;91.09;101886.28;4964973;28;20109;-74
2022/07/14 05:36:48;;;;;;;18.48;5.13;;;;;;;16.21;91.22;101884.88;4973755;28;20030;-75
2022/07/14 05:39:13;;;;;;;19.48;5.22;;;;;;;16.21;90.95;101885.69;4969491;28;20494;-74
2022/07/14 05:41:38;;;;;;;17.92;6.00;;;;;;;16.19;90.64;101882.38;4946348;28;20036;-74
2022/07/14 05:44:04;;;;;;;20.23;5.78;;;;;;;16.21;89.30;101879.41;4934209;29;20066;-74
2022/07/14 05:46:29;;;;;;;17.20;5.10;;;;;;;16.20;89.88;101888.66;4935734;29;20031;-73
2022/07/14 05:48:54;;;;;;;21.35;5.80;;;;;;;16.19;91.49;101887.84;4953591;28;20023;-74
2022/07/14 05:51:22;;;;;;;22.00;5.78;;;;;;;16.25;90.97;101888.78;4973561;28;20070;-73
2022/07/14 05:53:48;;;;;;;19.48;5.80;;;;;;;16.27;89.86;101889.38;4972252;28;20038;-74
2022/07/14 05:56:16;;;;;;;17.17;5.97;;;;;;;16.25;90.62;101891.53;4972196;28;20386;-74
2022/07/14 05:58:42;;;;;;;19.58;5.47;;;;;;;16.26;90.37;101884.97;4972289;28;20094;-74
2022/07/14 06:01:07;;;;;;;17.83;5.18;;;;;;;16.34;88.19;101879.16;4966163;28;20064;-74
2022/07/14 06:03:34;;;;;;;19.08;4.97;;;;;;;16.39;87.81;101884.75;4961545;28;20446;-74
2022/07/14 06:06:02;;;;;;;21.05;5.07;;;;;;;16.44;88.76;101875.81;4973759;28;20026;-73
2022/07/14 06:08:28;;;;;;;17.42;4.63;;;;;;;16.48;88.55;101879.75;4973365;28;20517;-74
2022/07/14 06:10:57;;;;;;;18.38;4.90;;;;;;;16.60;88.27;101882.47;4973479;28;20045;-76
2022/07/14 06:13:24;;;;;;;21.17;4.80;;;;;;;16.63;87.99;101890.19;4972303;28;20025;-76
2022/07/14 06:15:50;;;;;;;19.58;5.20;;;;;;;16.63;85.94;101892.91;4972152;28;20533;-75
2022/07/14 06:18:16;;;;;;;17.38;4.53;;;;;;;16.64;85.62;101895.41;4969852;28;20031;-74
2022/07/14 06:20:44;;;;;;;19.45;5.05;;;;;;;16.68;87.65;101890.28;4971531;28;20054;-74
2022/07/14 06:23:09;;;;;;;21.98;5.10;;;;;;;16.71;86.76;101878.03;4966414;28;20435;-74
2022/07/14 06:25:38;;;;;;;16.35;5.43;;;;;;;16.79;85.48;101875.78;4952808;28;20027;-75
2022/07/14 06:28:11;;;;;;;17.98;5.22;;;;;;;16.87;84.27;101880.06;4952873;29;20028;-75
2022/07/14 06:30:41;;;;;;;16.98;4.30;;;;;;;16.91;82.41;101875.78;4952348;29;20106;-75
2022/07/14 06:33:12;;;;;;;18.73;4.88;;;;;;;16.94;82.07;101880.75;4951731;29;20486;-75
2022/07/14 06:35:44;;;;;;;21.80;4.63;;;;;;;16.93;81.23;101894.66;4953575;28;20442;-76
2022/07/14 06:38:12;;;;;;;18.58;5.10;;;;;;;16.99;81.71;101890.97;4933348;29;20378;-75
2022/07/14 06:40:38;;;;;;;18.45;5.00;;;;;;;17.05;80.97;101890.00;4936507;29;20020;-75
2022/07/14 06:43:03;;;;;;;15.77;4.10;;;;;;;17.15;80.69;101876.53;4936953;29;20424;-75
2022/07/14 06:45:29;;;;;;;15.85;4.03;;;;;;;17.22;80.05;101890.03;4938393;29;20031;-74
2022/07/14 06:47:55;;;;;;;22.63;4.78;;;;;;;17.26;78.89;101888.47;4952966;29;20024;-74
2022/07/14 06:50:20;;;;;;;19.30;5.25;;;;;;;17.29;78.91;101896.19;4961007;28;20418;-74
2022/07/14 06:52:46;;;;;;;17.52;4.82;;;;;;;17.33;78.39;101891.06;4976320;28;20102;-73
2022/07/14 06:55:11;;;;;;;15.35;4.57;;;;;;;17.27;78.43;101879.22;4976779;28;20109;-75
2022/07/14 06:57:37;;;;;;;19.13;5.07;;;;;;;17.33;77.79;101888.31;4976556;28;20093;-74
2022/07/14 07:00:07;;;;;;;18.40;5.45;;;;;;;17.33;76.97;101880.09;4970747;28;20042;-75
2022/07/14 07:02:34;;;;;;;18.70;5.10;;;;;;;17.33;77.26;101880.97;4952580;28;20023;-75
2022/07/14 07:07:43;;;;;;;16.30;4.30;;;;;;;17.42;75.58;101877.81;4950492;29;20090;-74
2022/07/14 07:10:10;;;;;;;10.07;4.43;;;;;;;17.45;74.66;101889.13;4955641;28;20411;-74
2022/07/14 07:12:35;;;;;;;12.73;4.32;;;;;;;17.42;74.39;101884.13;4955557;29;20047;-74
2022/07/14 07:15:00;;;;;;;17.83;4.75;;;;;;;17.41;74.84;101884.34;4943415;28;20062;-74
2022/07/14 07:17:26;;;;;;;17.02;4.40;;;;;;;17.49;76.03;101887.53;4969889;28;20032;-74
2022/07/14 07:19:51;;;;;;;19.65;4.72;;;;;;;17.58;75.09;101882.50;4957807;28;20053;-75
2022/07/14 07:22:16;;;;;;;24.20;5.00;;;;;;;17.68;74.55;101881.84;4955678;28;20023;-74
2022/07/14 07:28:08;;;;;;;20.95;4.65;;;;;;;17.76;73.41;101875.94;4975810;28;20038;-76
2022/07/14 07:30:33;;;;;;;18.17;4.85;;;;;;;17.78;73.86;101865.56;4974892;28;20049;-73
2022/07/14 07:32:58;;;;;;;18.60;4.43;;;;;;;17.89;73.28;101874.84;4976135;28;20030;-72
2022/07/14 07:35:24;;;;;;;13.85;3.92;;;;;;;17.97;71.65;101873.59;4974627;28;20418;-72
2022/07/14 07:37:49;;;;;;;10.13;3.50;;;;;;;18.03;70.99;101876.13;4962564;28;20082;-72
2022/07/14 07:40:15;;;;;;;16.05;4.22;;;;;;;18.07;70.83;101879.19;4956013;28;20085;-72
2022/07/14 07:42:40;;;;;;;13.90;3.85;;;;;;;18.11;70.98;101869.41;4969361;28;20050;-72
2022/07/14 07:45:07;;;;;;;14.80;4.00;;;;;;;18.17;71.82;101857.44;4953155;29;20455;-73
2022/07/14 07:47:33;;;;;;;16.15;4.22;;;;;;;18.25;71.48;101850.69;4969388;28;20077;-73
2022/07/14 07:49:59;;;;;;;14.30;4.47;;;;;;;18.27;70.32;101851.28;4975577;28;20117;-73
2022/07/14 07:52:24;;;;;;;15.85;3.90;;;;;;;18.28;68.86;101847.44;4973542;28;20530;-73
2022/07/14 07:54:50;;;;;;;11.20;3.72;;;;;;;18.31;67.29;101865.31;4974212;28;20109;-72
2022/07/14 07:57:15;;;;;;;15.43;3.70;;;;;;;18.36;67.30;101857.19;4975656;28;20023;-72
2022/07/14 07:59:41;;;;;;;14.48;2.95;;;;;;;18.42;68.05;101854.25;4974136;28;20062;-72
2022/07/14 08:02:06;;;;;;;11.93;2.92;;;;;;;18.50;66.05;101854.88;4948585;28;20035;-73
2022/07/14 08:04:32;;;;;;;11.75;3.08;;;;;;;18.52;66.35;101858.19;4935680;29;20375;-73
2022/07/14 08:06:58;;;;;;;13.63;3.30;;;;;;;18.57;66.75;101841.84;4936833;29;20028;-72
2022/07/14 08:09:24;;;;;;;11.90;3.40;;;;;;;18.60;65.80;101838.59;4936971;29;20106;-72
2022/07/14 08:11:49;;;;;;;15.30;3.50;;;;;;;18.70;65.82;101843.34;4936753;29;20156;-72
2022/07/14 08:16:59;;;;;;;15.10;3.20;;;;;;;18.71;64.19;101840.34;4967227;28;20069;-73
2022/07/14 08:19:25;;;;;;;11.25;2.83;;;;;;;18.76;63.73;101829.44;4974824;28;20058;-73
2022/07/14 08:21:50;;;;;;;10.77;2.90;;;;;;;18.82;63.05;101835.81;4973752;28;20031;-72
2022/07/14 08:24:20;;;;;;;8.77;3.00;;;;;;;18.85;63.31;101829.84;4955265;28;20482;-73
2022/07/14 08:26:50;;;;;;;17.08;3.13;;;;;;;18.90;64.50;101829.06;4954304;29;20416;-72
2022/07/14 08:29:16;;;;;;;14.32;3.60;;;;;;;18.91;64.62;101828.81;4954486;29;20050;-71
2022/07/14 08:31:42;;;;;;;14.85;3.00;;;;;;;19.00;62.86;101831.13;4954339;28;20110;-75
2022/07/14 08:34:07;;;;;;;11.73;3.72;;;;;;;19.04;62.77;101832.25;4950910;28;20023;-72
2022/07/14 08:36:33;;;;;;;13.35;3.33;;;;;;;19.04;63.27;101827.59;4967079;28;20027;-72
2022/07/14 08:39:00;;;;;;;14.35;4.18;;;;;;;19.05;63.08;101823.78;4938982;28;20028;-73
2022/07/14 08:41:26;;;;;;;15.90;3.75;;;;;;;19.18;63.44;101821.69;4966955;28;20362;-74
2022/07/14 08:43:52;;;;;;;15.65;3.38;;;;;;;19.20;62.35;101825.81;4949984;28;20024;-75
2022/07/14 08:46:21;;;;;;;14.55;3.45;;;;;;;19.25;62.00;101831.38;4936311;29;20118;-76
2022/07/14 08:48:47;;;;;;;16.27;3.30;;;;;;;19.26;59.93;101838.53;4936273;29;20474;-72
2022/07/14 08:51:13;;;;;;;12.05;2.97;;;;;;;19.29;59.66;101832.53;4936228;29;20128;-72
2022/07/14 08:53:39;;;;;;;9.70;3.00;;;;;;;19.30;60.24;101823.19;4934910;29;20031;-72
2022/07/14 08:56:04;;;;;;;9.73;3.30;;;;;;;19.32;60.28;101822.91;4939878;28;20036;-72
2022/07/14 08:58:30;;;;;;;11.63;3.13;;;;;;;19.45;58.41;101822.50;4954065;29;20030;-72
2022/07/14 09:00:55;;;;;;;14.70;3.15;;;;;;;19.44;57.76;101825.50;4952648;28;20110;-72
2022/07/14 09:03:21;;;;;;;10.13;3.00;;;;;;;19.48;57.19;101832.13;4935678;28;20039;-72
2022/07/14 09:05:46;;;;;;;10.52;3.05;;;;;;;19.53;58.74;101828.59;4950524;29;20515;-72
2022/07/14 09:08:13;;;;;;;12.75;3.08;;;;;;;19.65;58.83;101819.06;4935850;29;20030;-73
2022/07/14 09:10:40;;;;;;;9.52;2.50;;;;;;;19.69;58.99;101819.41;4943309;29;20376;-72
2022/07/14 09:13:20;;;;;;;13.27;3.42;;;;;;;19.76;59.39;101817.25;4948867;28;20067;-72
2022/07/14 09:15:48;;;;;;;14.20;3.47;;;;;;;19.92;59.12;101815.47;4963922;28;20023;-72
2022/07/14 09:18:28;;;;;;;12.90;2.90;;;;;;;20.00;58.57;101817.72;4935797;29;20542;-72
2022/07/14 09:20:55;;;;;;;7.60;3.20;;;;;;;20.04;58.30;101817.19;4947051;29;20055;-72
2022/07/14 09:23:37;;;;;;;12.60;3.08;;;;;;;20.08;57.82;101810.91;4951881;28;20431;-74
2022/07/14 09:26:14;;;;;;;;;;;;;;;20.16;59.40;101820.56;4954459;28;20434;-73
2022/07/14 09:28:41;;;;;;;7.53;2.35;;;;;;;20.12;55.06;101830.44;4953203;29;19996;-74
2022/07/14 09:31:30;;;;;;;9.65;2.47;;;;;;;20.21;57.11;101812.34;4953129;28;20038;-73
2022/07/14 09:33:58;;;;;;;8.35;2.88;;;;;;;20.32;54.34;101814.06;4949035;28;20071;-73
2022/07/14 09:36:28;;;;;;;11.60;2.50;;;;;;;20.38;53.24;101816.81;4969343;28;20086;-72
2022/07/14 09:38:57;;;;;;;6.93;2.40;;;;;;;20.47;53.70;101809.72;4953581;28;20042;-74
2022/07/14 09:41:23;;;;;;;7.03;2.58;;;;;;;20.57;55.33;101809.75;4945443;28;20035;-74
2022/07/14 09:44:09;;;;;;;9.05;2.80;;;;;;;20.67;56.01;101820.81;4971240;28;20348;-72
2022/07/14 09:46:54;;;;;;;8.02;2.03;;;;;;;20.67;52.66;101804.31;4972579;28;20450;-75
2022/07/14 09:49:21;;;;;;;5.20;2.03;;;;;;;20.67;51.81;101812.59;4973691;28;20023;-73
2022/07/14 09:51:58;;;;;;;10.25;2.35;;;;;;;20.69;51.68;101807.63;4973903;28;20058;-73
2022/07/14 09:54:45;;;;;;;11.57;2.47;;;;;;;20.71;53.13;101815.59;4973841;28;20033;-74
2022/07/14 09:57:13;;;;;;;4.32;1.80;;;;;;;20.75;49.63;101818.66;4973553;28;20027;-74
2022/07/14 09:59:44;;;;;;;6.20;1.90;;;;;;;20.82;50.30;101816.47;4957076;28;20079;-72
2022/07/14 10:02:21;;;;;;;8.80;2.00;;;;;;;20.94;48.91;101822.56;4971000;28;20103;-71
2022/07/14 10:04:47;;;;;;;6.15;1.77;;;;;;;20.94;45.74;101817.06;4973635;28;20033;-71
2022/07/14 10:07:15;;;;;;;5.53;1.73;;;;;;;21.01;45.67;101814.84;4973200;28;20541;-70
2022/07/14 10:10:08;;;;;;;7.95;1.95;;;;;;;21.07;47.18;101810.19;4973719;28;20066;-71
2022/07/14 10:12:36;;;;;;;10.77;2.28;;;;;;;21.02;48.60;101815.72;4973150;28;20035;-74
2022/07/14 10:15:04;;;;;;;8.25;2.30;;;;;;;20.96;49.08;101808.53;4972499;28;20471;-73
2022/07/14 10:17:30;;;;;;;5.93;1.80;;;;;;;20.96;49.19;101820.38;4938930;29;20111;-73
2022/07/14 10:19:56;;;;;;;8.45;2.25;;;;;;;20.91;49.39;101814.84;4953713;29;20054;-71
2022/07/14 10:22:22;;;;;;;9.48;2.35;;;;;;;21.14;51.18;101823.72;4958095;28;20035;-72
2022/07/14 10:24:49;;;;;;;6.72;2.28;;;;;;;21.19;50.38;101823.72;4957964;28;20039;-70
2022/07/14 10:27:18;;;;;;;8.23;2.00;;;;;;;21.18;47.99;101819.28;4957980;28;20054;-70
2022/07/14 10:29:47;;;;;;;10.95;2.15;;;;;;;21.26;48.04;101818.78;4956699;29;20336;-73
2022/07/14 10:32:56;;;;;;;5.82;1.80;;;;;;;21.28;49.30;101819.31;4975358;28;20041;-75
2022/07/14 10:35:50;;;;;;;6.32;1.73;;;;;;;21.37;49.57;101828.69;4976817;28;20039;-73
2022/07/14 10:38:41;;;;;;;9.50;2.28;;;;;;;21.55;49.27;101823.78;4967716;28;20076;-74
2022/07/14 10:41:34;;;;;;;8.20;2.13;;;;;;;21.63;49.39;101831.47;4960494;28;20031;-74
2022/07/14 10:44:23;;;;;;;6.13;1.80;;;;;;;21.64;49.03;101827.63;4957410;29;20034;-75
2022/07/14 10:47:04;;;;;;;6.95;2.15;;;;;;;21.68;48.56;101836.13;4956544;28;20086;-76
2022/07/14 10:49:29;;;;;;;;;;;;;;;21.74;49.88;101824.00;4958561;28;20077;-73
2022/07/14 10:51:55;;;;;;;10.67;2.37;;;;;;;21.62;49.31;101824.31;4976630;28;19905;-73
2022/07/14 10:54:27;;;;;;;8.68;2.22;;;;;;;21.62;49.42;101829.84;4976521;28;20281;-72
2022/07/14 10:57:09;;;;;;;5.00;1.50;;;;;;;21.62;50.03;101824.31;4976814;28;20327;-72
2022/07/14 10:59:36;;;;;;;4.57;1.60;;;;;;;21.71;47.37;101822.66;4976402;28;20422;-73
2022/07/14 11:02:13;;;;;;;5.93;1.70;;;;;;;21.79;47.65;101814.94;4966515;28;20477;-73
2022/07/14 11:04:59;;;;;;;5.32;1.45;;;;;;;21.86;48.45;101818.22;4945928;29;20107;-72
2022/07/14 11:07:41;;;;;;;7.05;1.70;;;;;;;21.92;47.46;101823.47;4938129;29;20082;-74
2022/07/14 11:10:18;;;;;;;6.72;1.90;;;;;;;22.00;47.55;101827.56;4937918;29;20024;-73
2022/07/14 11:13:09;;;;;;;4.97;1.92;;;;;;;22.08;47.66;101817.91;4937273;29;20028;-73
2022/07/14 11:15:38;;;;;;;7.35;1.73;;;;;;;22.26;47.19;101822.00;4937777;29;20530;-73
2022/07/14 11:18:18;;;;;;;6.32;1.98;;;;;;;22.46;48.47;101819.22;4937740;29;20340;-73
2022/07/14 11:21:06;;;;;;;7.70;1.85;;;;;;;22.52;47.24;101825.50;4938016;29;20048;-73
2022/07/14 11:23:36;;;;;;;6.00;2.10;;;;;;;22.54;46.39;101827.97;4951894;28;20035;-72
2022/07/14 11:26:07;;;;;;;7.60;1.60;;;;;;;22.59;46.66;101819.69;4936489;29;20032;-72
2022/07/14 11:28:38;;;;;;;7.60;1.75;;;;;;;22.57;45.72;101817.22;4958819;28;20476;-74
2022/07/14 11:31:17;;;;;;;8.45;1.85;;;;;;;22.41;46.56;101813.69;4974723;28;20041;-72
2022/07/14 11:36:31;;;;;;;10.90;2.30;;;;;;;22.79;46.41;101808.53;4975880;28;20069;-73
2022/07/14 11:39:15;;;;;;;42.70;6.47;;;;;;;22.94;46.65;101818.66;4974565;28;20446;-73
2022/07/14 11:41:49;;;;;;;8.55;2.17;;;;;;;23.00;46.64;101803.72;4966094;28;20036;-72